createdAt,value
2019-01-30T00:01:57.898Z,0.40
2019-01-30T00:04:28.346Z,0.30
2019-01-30T00:06:58.951Z,0.30
2019-01-30T00:09:29.860Z,0.30
2019-01-30T00:12:00.535Z,0.30
2019-01-30T00:14:31.417Z,0.30
2019-01-30T00:17:02.110Z,0.30
2019-01-30T00:19:33.205Z,0.20
2019-01-30T00:22:03.878Z,0.20
2019-01-30T00:24:34.566Z,0.20
2019-01-30T00:27:05.249Z,0.20
2019-01-30T00:29:36.024Z,0.20
2019-01-30T00:32:06.630Z,0.20
2019-01-30T00:34:37.505Z,0.20
2019-01-30T00:37:08.328Z,0.20
2019-01-30T00:39:38.909Z,0.20
2019-01-30T00:42:09.590Z,0.20
2019-01-30T00:44:40.531Z,0.20
2019-01-30T00:47:15.925Z,0.10
2019-01-30T00:49:43.543Z,0.10
2019-01-30T00:52:14.312Z,0.10
2019-01-30T00:54:45.296Z,0.10
2019-01-30T00:57:15.934Z,0.00
2019-01-30T00:59:46.710Z,0.00
2019-01-30T01:02:17.363Z,0.10
2019-01-30T01:04:47.971Z,0.00
2019-01-30T01:07:18.846Z,0.00
2019-01-30T01:09:49.562Z,0.00
2019-01-30T01:12:20.518Z,0.00
2019-01-30T01:14:51.192Z,0.00
2019-01-30T01:17:21.817Z,0.00
2019-01-30T01:19:52.662Z,0.00
2019-01-30T01:22:23.771Z,-0.10
2019-01-30T01:24:54.354Z,-0.10
2019-01-30T01:27:25.252Z,-0.10
2019-01-30T01:29:56.377Z,-0.10
2019-01-30T01:32:27.212Z,-0.10
2019-01-30T01:34:58.256Z,-0.10
2019-01-30T01:37:28.913Z,-0.10
2019-01-30T01:39:59.787Z,-0.10
2019-01-30T01:42:30.586Z,-0.10
2019-01-30T01:45:01.265Z,-0.10
2019-01-30T01:47:32.049Z,-0.10
2019-01-30T01:50:02.831Z,-0.10
2019-01-30T01:52:33.555Z,-0.10
2019-01-30T01:55:04.963Z,-0.10
2019-01-30T01:57:35.888Z,-0.10
2019-01-30T02:00:12.603Z,-0.10
2019-01-30T02:02:43.414Z,-0.10
2019-01-30T02:05:16.411Z,-0.20
2019-01-30T02:07:47.179Z,-0.10
2019-01-30T02:10:23.049Z,-0.20
2019-01-30T02:12:57.648Z,-0.10
2019-01-30T02:15:28.959Z,-0.10
2019-01-30T02:17:59.692Z,-0.10
2019-01-30T02:20:33.112Z,-0.20
2019-01-30T02:23:04.111Z,-0.10
2019-01-30T02:25:34.875Z,-0.10
2019-01-30T02:28:05.680Z,-0.20
2019-01-30T02:30:46.688Z,-0.20
2019-01-30T02:33:08.738Z,-0.20
2019-01-30T02:35:39.542Z,-0.20
2019-01-30T02:38:10.562Z,-0.20
2019-01-30T02:40:41.431Z,-0.20
2019-01-30T02:43:12.624Z,-0.20
2019-01-30T02:45:43.493Z,-0.20
2019-01-30T02:48:14.403Z,-0.20
2019-01-30T02:50:45.201Z,-0.20
2019-01-30T02:53:15.929Z,-0.20
2019-01-30T02:55:46.902Z,-0.20
2019-01-30T02:58:18.026Z,-0.20
2019-01-30T03:00:58.905Z,-0.20
2019-01-30T03:03:21.179Z,-0.20
2019-01-30T03:05:52.103Z,-0.30
2019-01-30T03:08:22.721Z,-0.30
2019-01-30T03:10:53.495Z,-0.20
2019-01-30T03:13:24.262Z,-0.30
2019-01-30T03:15:54.994Z,-0.30
2019-01-30T03:18:25.688Z,-0.30
2019-01-30T03:20:56.718Z,-0.30
2019-01-30T03:23:27.747Z,-0.30
2019-01-30T03:25:58.402Z,-0.30
2019-01-30T03:28:29.082Z,-0.30
2019-01-30T03:31:15.557Z,-0.30
2019-01-30T03:33:32.283Z,-0.30
2019-01-30T03:36:03.161Z,-0.30
2019-01-30T03:38:34.106Z,-0.30
2019-01-30T03:41:04.955Z,-0.30
2019-01-30T03:43:36.081Z,-0.40
2019-01-30T03:46:06.716Z,-0.30
2019-01-30T03:48:37.592Z,-0.30
2019-01-30T03:51:08.398Z,-0.30
2019-01-30T03:53:39.133Z,-0.30
2019-01-30T03:56:09.711Z,-0.40
2019-01-30T03:58:40.402Z,-0.30
2019-01-30T04:01:11.168Z,-0.40
2019-01-30T04:03:41.587Z,-0.40
2019-01-30T04:06:12.163Z,-0.40
2019-01-30T04:08:43.025Z,-0.40
2019-01-30T04:11:13.865Z,-0.40
2019-01-30T04:13:44.595Z,-0.40
2019-01-30T04:16:15.541Z,-0.40
2019-01-30T04:18:45.888Z,-0.40
2019-01-30T04:21:16.527Z,-0.40
2019-01-30T04:23:47.345Z,-0.40
2019-01-30T04:26:18.348Z,-0.40
2019-01-30T04:28:49.491Z,-0.40
2019-01-30T04:31:20.295Z,-0.40
2019-01-30T04:33:51.193Z,-0.40
2019-01-30T04:36:22.101Z,-0.40
2019-01-30T04:38:52.757Z,-0.40
2019-01-30T04:41:23.577Z,-0.40
2019-01-30T04:43:54.505Z,-0.50
2019-01-30T04:46:25.265Z,-0.50
2019-01-30T04:48:56.096Z,-0.50
2019-01-30T04:51:26.733Z,-0.50
2019-01-30T04:53:57.647Z,-0.50
2019-01-30T04:56:28.278Z,-0.50
2019-01-30T04:58:59.317Z,-0.50
2019-01-30T05:01:30.460Z,-0.40
2019-01-30T05:04:01.322Z,-0.50
2019-01-30T05:06:32.345Z,-0.60
2019-01-30T05:09:03.192Z,-0.70
2019-01-30T05:11:34.077Z,-0.70
2019-01-30T05:14:05.456Z,-0.60
2019-01-30T05:16:36.532Z,-0.60
2019-01-30T05:19:07.255Z,-0.50
2019-01-30T05:21:38.176Z,-0.50
2019-01-30T05:24:08.935Z,-0.50
2019-01-30T05:26:39.597Z,-0.50
2019-01-30T05:29:10.289Z,-0.50
2019-01-30T05:31:41.136Z,-0.50
2019-01-30T05:34:12.006Z,-0.50
2019-01-30T05:36:42.517Z,-0.50
2019-01-30T05:39:13.259Z,-0.50
2019-01-30T05:41:43.913Z,-0.50
2019-01-30T05:44:14.894Z,-0.50
2019-01-30T05:46:45.630Z,-0.50
2019-01-30T05:49:16.653Z,-0.50
2019-01-30T05:51:47.571Z,-0.50
2019-01-30T05:54:18.292Z,-0.50
2019-01-30T05:56:49.374Z,-0.50
2019-01-30T05:59:20.255Z,-0.50
2019-01-30T06:01:51.207Z,-0.50
2019-01-30T06:04:22.006Z,-0.50
2019-01-30T06:06:52.855Z,-0.50
2019-01-30T06:09:23.743Z,-0.50
2019-01-30T06:11:54.348Z,-0.50
2019-01-30T06:14:25.178Z,-0.50
2019-01-30T06:16:55.873Z,-0.50
2019-01-30T06:19:26.641Z,-0.50
2019-01-30T06:21:57.235Z,-0.60
2019-01-30T06:24:28.348Z,-0.50
2019-01-30T06:26:58.934Z,-0.60
2019-01-30T06:29:29.600Z,-0.50
2019-01-30T06:32:00.549Z,-0.50
2019-01-30T06:34:31.590Z,-0.60
2019-01-30T06:37:02.447Z,-0.60
2019-01-30T06:39:33.466Z,-0.50
2019-01-30T06:42:04.254Z,-0.50
2019-01-30T06:44:34.954Z,-0.60
2019-01-30T06:47:06.386Z,-0.60
2019-01-30T06:49:37.341Z,-0.60
2019-01-30T06:52:07.930Z,-0.60
2019-01-30T06:54:41.040Z,-0.50
2019-01-30T06:57:11.227Z,-0.60
2019-01-30T06:59:41.890Z,-0.50
2019-01-30T07:02:12.838Z,-0.60
2019-01-30T07:04:43.635Z,-0.60
2019-01-30T07:07:14.524Z,-0.60
2019-01-30T07:09:45.860Z,-0.60
2019-01-30T07:12:16.397Z,-0.50
2019-01-30T07:14:47.269Z,-0.50
2019-01-30T07:17:18.326Z,-0.50
2019-01-30T07:19:49.060Z,-0.60
2019-01-30T07:22:20.130Z,-0.60
2019-01-30T07:24:50.744Z,-0.60
2019-01-30T07:27:21.477Z,-0.60
2019-01-30T07:29:52.639Z,-0.60
2019-01-30T07:32:23.445Z,-0.60
2019-01-30T07:34:54.268Z,-0.60
2019-01-30T07:37:24.928Z,-0.50
2019-01-30T07:39:55.891Z,-0.60
2019-01-30T07:42:26.654Z,-0.60
2019-01-30T07:44:57.434Z,-0.60
2019-01-30T07:47:28.422Z,-0.60
2019-01-30T07:49:59.233Z,-0.60
2019-01-30T07:52:31.167Z,-0.50
2019-01-30T07:55:02.255Z,-0.50
2019-01-30T07:57:32.919Z,-0.50
2019-01-30T08:00:05.060Z,-0.50
2019-01-30T08:02:35.988Z,-0.50
2019-01-30T08:05:08.635Z,-0.50
2019-01-30T08:07:39.495Z,-0.50
2019-01-30T08:10:15.326Z,-0.50
2019-01-30T08:12:46.139Z,-0.50
2019-01-30T08:15:18.554Z,-0.50
2019-01-30T08:17:49.758Z,-0.50
2019-01-30T08:20:22.396Z,-0.50
2019-01-30T08:22:53.417Z,-0.50
2019-01-30T08:25:24.445Z,-0.50
2019-01-30T08:27:55.524Z,-0.50
2019-01-30T08:30:28.781Z,-0.50
2019-01-30T08:33:04.677Z,-0.50
2019-01-30T08:35:33.697Z,-0.50
2019-01-30T08:38:05.094Z,-0.50
2019-01-30T08:40:35.804Z,-0.40
2019-01-30T08:43:06.469Z,-0.40
2019-01-30T08:45:37.278Z,-0.40
2019-01-30T08:48:08.186Z,-0.40
2019-01-30T08:50:39.015Z,-0.40
2019-01-30T08:53:09.612Z,-0.40
2019-01-30T08:55:40.391Z,-0.30
2019-01-30T08:58:11.664Z,-0.40
2019-01-30T09:00:42.278Z,-0.30
2019-01-30T09:03:14.938Z,-0.30
2019-01-30T09:05:45.378Z,-0.30
2019-01-30T09:08:16.042Z,-0.30
2019-01-30T09:10:46.788Z,-0.30
2019-01-30T09:13:17.807Z,-0.30
2019-01-30T09:15:48.459Z,-0.20
2019-01-30T09:18:19.226Z,-0.20
2019-01-30T09:20:49.828Z,-0.20
2019-01-30T09:23:20.402Z,-0.10
2019-01-30T09:25:51.485Z,-0.10
2019-01-30T09:28:22.647Z,-0.10
2019-01-30T09:30:53.289Z,-0.10
2019-01-30T09:33:26.240Z,-0.10
2019-01-30T09:35:56.945Z,-0.10
2019-01-30T09:38:28.011Z,-0.10
2019-01-30T09:40:58.832Z,0.00
2019-01-30T09:43:29.499Z,0.00
2019-01-30T09:46:00.617Z,0.00
2019-01-30T09:48:31.165Z,0.00
2019-01-30T09:51:02.191Z,0.00
2019-01-30T09:53:34.727Z,0.10
2019-01-30T09:56:05.719Z,0.10
2019-01-30T09:58:36.639Z,0.10
2019-01-30T10:01:07.249Z,0.10
2019-01-30T10:03:38.126Z,0.20
2019-01-30T10:06:09.010Z,0.20
2019-01-30T10:08:39.688Z,0.20
2019-01-30T10:11:10.429Z,0.20
2019-01-30T10:13:41.230Z,0.20
2019-01-30T10:16:11.805Z,0.20
2019-01-30T10:18:42.538Z,0.20
2019-01-30T10:21:13.655Z,0.30
2019-01-30T10:23:44.247Z,0.30
2019-01-30T10:26:15.165Z,0.30
2019-01-30T10:28:46.201Z,0.30
2019-01-30T10:31:16.860Z,0.30
2019-01-30T10:33:47.445Z,0.30
2019-01-30T10:36:18.132Z,0.30
2019-01-30T10:38:48.982Z,0.30
2019-01-30T10:41:19.712Z,0.50
2019-01-30T10:43:50.607Z,0.80
2019-01-30T10:46:21.211Z,1.00
2019-01-30T10:48:51.888Z,1.10
2019-01-30T10:51:23.214Z,1.30
2019-01-30T10:53:55.293Z,1.40
2019-01-30T10:56:26.131Z,1.40
2019-01-30T10:58:57.091Z,1.50
2019-01-30T11:01:27.679Z,1.50
2019-01-30T11:03:58.365Z,1.60
2019-01-30T11:06:29.740Z,1.60
2019-01-30T11:09:01.048Z,1.60
2019-01-30T11:11:31.761Z,1.70
2019-01-30T11:14:03.012Z,1.70
2019-01-30T11:16:33.924Z,1.70
2019-01-30T11:19:04.886Z,1.70
2019-01-30T11:21:35.519Z,1.70
2019-01-30T11:24:06.121Z,1.70
2019-01-30T11:26:37.461Z,1.80
2019-01-30T11:29:08.115Z,1.90
2019-01-30T11:31:39.140Z,1.90
2019-01-30T11:34:10.009Z,1.90
2019-01-30T11:36:40.751Z,1.90
2019-01-30T11:39:11.719Z,1.90
2019-01-30T11:41:42.789Z,1.90
2019-01-30T11:44:13.563Z,1.90
2019-01-30T11:46:44.643Z,1.90
2019-01-30T11:49:15.490Z,2.00
2019-01-30T11:51:46.340Z,1.90
2019-01-30T11:54:17.182Z,2.00
2019-01-30T11:56:48.046Z,2.00
2019-01-30T11:59:18.752Z,2.00
2019-01-30T12:01:49.470Z,2.00
2019-01-30T12:04:20.487Z,2.00
2019-01-30T12:06:53.906Z,2.00
2019-01-30T12:09:24.492Z,2.00
2019-01-30T12:11:55.186Z,2.00
2019-01-30T12:14:25.985Z,2.00
2019-01-30T12:16:57.031Z,2.00
2019-01-30T12:19:27.778Z,2.00
2019-01-30T12:21:58.123Z,2.00
2019-01-30T12:24:29.286Z,2.00
2019-01-30T12:26:59.986Z,2.00
2019-01-30T12:29:30.572Z,2.10
2019-01-30T12:32:01.395Z,2.00
2019-01-30T12:34:32.258Z,2.10
2019-01-30T12:37:03.368Z,2.10
2019-01-30T12:39:34.154Z,2.10
2019-01-30T12:42:05.309Z,2.10
2019-01-30T12:44:36.321Z,2.20
2019-01-30T12:47:06.910Z,2.20
2019-01-30T12:49:38.049Z,2.30
2019-01-30T12:52:08.861Z,2.30
2019-01-30T12:54:39.872Z,2.30
2019-01-30T12:57:10.828Z,2.40
2019-01-30T12:59:41.747Z,2.40
2019-01-30T13:02:12.712Z,2.50
2019-01-30T13:04:43.269Z,2.50
2019-01-30T13:07:13.815Z,2.60
2019-01-30T13:09:44.653Z,2.60
2019-01-30T13:12:15.339Z,2.70
2019-01-30T13:14:46.112Z,2.70
2019-01-30T13:17:16.851Z,2.80
2019-01-30T13:19:47.537Z,2.80
2019-01-30T13:22:18.515Z,2.80
2019-01-30T13:24:49.164Z,2.80
2019-01-30T13:27:20.047Z,2.80
2019-01-30T13:29:50.708Z,2.80
2019-01-30T13:32:21.697Z,2.80
2019-01-30T13:34:52.575Z,2.80
2019-01-30T13:37:23.210Z,2.80
2019-01-30T13:39:53.959Z,2.80
2019-01-30T13:42:24.537Z,2.80
2019-01-30T13:44:55.521Z,2.80
2019-01-30T13:47:26.607Z,2.80
2019-01-30T13:49:57.781Z,2.70
2019-01-30T13:52:28.789Z,2.70
2019-01-30T13:54:59.404Z,2.70
2019-01-30T13:57:30.189Z,2.60
2019-01-30T14:00:00.990Z,2.60
2019-01-30T14:02:31.691Z,2.60
2019-01-30T14:05:02.362Z,2.50
2019-01-30T14:07:33.009Z,2.50
2019-01-30T14:10:04.014Z,2.50
2019-01-30T14:12:34.722Z,2.50
2019-01-30T14:15:08.109Z,2.40
2019-01-30T14:17:38.919Z,2.40
2019-01-30T14:20:12.353Z,2.40
2019-01-30T14:22:43.340Z,2.40
2019-01-30T14:25:14.891Z,2.40
2019-01-30T14:27:45.654Z,2.30
2019-01-30T14:30:25.402Z,2.30
2019-01-30T14:32:56.323Z,2.30
2019-01-30T14:35:27.863Z,2.30
2019-01-30T14:37:58.832Z,2.20
2019-01-30T14:40:29.724Z,2.20
2019-01-30T14:43:00.339Z,2.20
2019-01-30T14:45:31.124Z,2.20
2019-01-30T14:48:02.129Z,2.20
2019-01-30T14:50:32.929Z,2.20
2019-01-30T14:53:03.809Z,2.10
2019-01-30T14:55:34.452Z,2.10
2019-01-30T14:58:07.047Z,2.10
2019-01-30T15:00:38.049Z,2.10
2019-01-30T15:03:08.732Z,2.10
2019-01-30T15:05:39.386Z,2.00
2019-01-30T15:08:09.899Z,2.00
2019-01-30T15:10:40.630Z,2.10
2019-01-30T15:13:11.608Z,2.00
2019-01-30T15:15:44.142Z,2.00
2019-01-30T15:18:14.833Z,2.00
2019-01-30T15:20:45.646Z,2.00
2019-01-30T15:23:16.608Z,1.90
2019-01-30T15:25:47.314Z,1.90
2019-01-30T15:28:18.304Z,1.90
2019-01-30T15:30:48.978Z,1.90
2019-01-30T15:33:19.778Z,1.90
2019-01-30T15:35:50.576Z,1.90
2019-01-30T15:38:21.580Z,1.90
2019-01-30T15:40:52.602Z,1.90
2019-01-30T15:43:23.376Z,1.80
2019-01-30T15:45:54.410Z,1.80
2019-01-30T15:48:25.189Z,1.80
2019-01-30T15:50:55.972Z,1.80
2019-01-30T15:53:26.654Z,1.80
2019-01-30T15:55:57.360Z,1.80
2019-01-30T15:58:28.083Z,1.80
2019-01-30T16:01:04.593Z,1.70
2019-01-30T16:03:35.399Z,1.70
2019-01-30T16:06:06.563Z,1.70
2019-01-30T16:08:37.404Z,1.70
2019-01-30T16:11:08.084Z,1.70
2019-01-30T16:13:38.796Z,1.70
2019-01-30T16:16:09.897Z,1.70
2019-01-30T16:18:40.558Z,1.70
2019-01-30T16:21:11.321Z,1.70
2019-01-30T16:23:42.009Z,1.70
2019-01-30T16:26:12.789Z,1.70
2019-01-30T16:28:43.486Z,1.70
2019-01-30T16:31:14.213Z,1.60
2019-01-30T16:33:45.233Z,1.60
2019-01-30T16:36:16.310Z,1.60
2019-01-30T16:38:46.976Z,1.60
2019-01-30T16:41:18.151Z,1.60
2019-01-30T16:47:00.688Z,1.60
2019-01-30T16:49:31.586Z,1.60
2019-01-30T16:52:02.302Z,1.50
2019-01-30T16:54:33.417Z,1.50
2019-01-30T16:57:04.445Z,1.50
2019-01-30T16:59:35.440Z,1.50
2019-01-30T17:02:06.271Z,1.50
2019-01-30T17:04:37.283Z,1.50
2019-01-30T17:07:08.060Z,1.50
2019-01-30T17:09:38.856Z,1.50
2019-01-30T17:12:09.644Z,1.50
2019-01-30T17:14:40.698Z,1.50
2019-01-30T17:17:11.514Z,1.50
2019-01-30T17:19:42.447Z,1.50
2019-01-30T17:22:13.144Z,1.50
2019-01-30T17:24:43.912Z,1.40
2019-01-30T17:27:15.142Z,1.40
2019-01-30T17:29:45.991Z,1.40
2019-01-30T17:32:17.052Z,1.50
2019-01-30T17:34:47.831Z,1.50
2019-01-30T17:37:18.838Z,1.50
2019-01-30T17:39:49.736Z,1.50
2019-01-30T17:42:21.947Z,1.40
2019-01-30T17:44:52.832Z,1.40
2019-01-30T17:47:23.762Z,1.40
2019-01-30T17:49:54.706Z,1.40
2019-01-30T17:52:25.461Z,1.40
2019-01-30T17:54:56.349Z,1.40
2019-01-30T17:57:27.428Z,1.40
2019-01-30T17:59:58.617Z,1.40
2019-01-30T18:02:29.896Z,1.40
2019-01-30T18:05:00.742Z,1.40
2019-01-30T18:07:31.707Z,1.40
2019-01-30T18:10:02.401Z,1.40
2019-01-30T18:12:33.409Z,1.40
2019-01-30T18:15:05.372Z,1.40
2019-01-30T18:17:36.310Z,1.40
2019-01-30T18:20:09.823Z,1.40
2019-01-30T18:22:41.108Z,1.30
2019-01-30T18:25:17.284Z,1.30
2019-01-30T18:27:48.113Z,1.40
2019-01-30T18:30:23.084Z,1.30
2019-01-30T18:32:54.114Z,1.30
2019-01-30T18:35:24.972Z,1.30
2019-01-30T18:37:56.211Z,1.30
2019-01-30T18:40:28.788Z,1.30
2019-01-30T18:42:59.619Z,1.30
2019-01-30T18:45:30.522Z,1.30
2019-01-30T18:48:01.222Z,1.30
2019-01-30T18:50:32.208Z,1.30
2019-01-30T18:53:03.280Z,1.30
2019-01-30T18:55:34.182Z,1.30
2019-01-30T18:58:05.749Z,1.30
2019-01-30T19:00:39.421Z,1.30
2019-01-30T19:03:11.793Z,1.30
2019-01-30T19:05:42.925Z,1.30
2019-01-30T19:08:14.119Z,1.30
2019-01-30T19:10:45.015Z,1.30
2019-01-30T19:13:15.861Z,1.30
2019-01-30T19:15:48.312Z,1.30
2019-01-30T19:18:19.149Z,1.30
2019-01-30T19:20:50.124Z,1.30
2019-01-30T19:23:21.113Z,1.30
2019-01-30T19:25:51.944Z,1.20
2019-01-30T19:28:22.727Z,1.20
2019-01-30T19:30:54.309Z,1.20
2019-01-30T19:33:25.241Z,1.30
2019-01-30T19:35:56.699Z,1.30
2019-01-30T19:38:27.522Z,1.20
2019-01-30T19:41:01.679Z,1.20
2019-01-30T19:43:32.465Z,1.20
2019-01-30T19:46:03.366Z,1.20
2019-01-30T19:48:34.423Z,1.20
2019-01-30T19:51:05.577Z,1.20
2019-01-30T19:53:36.386Z,1.20
2019-01-30T19:56:07.297Z,1.20
2019-01-30T19:58:38.378Z,1.20
2019-01-30T20:01:11.962Z,1.20
2019-01-30T20:03:43.612Z,1.20
2019-01-30T20:06:14.496Z,1.20
2019-01-30T20:08:45.406Z,1.20
2019-01-30T20:11:16.263Z,1.20
2019-01-30T20:13:46.982Z,1.20
2019-01-30T20:16:17.776Z,1.20
2019-01-30T20:18:48.693Z,1.20
2019-01-30T20:21:19.971Z,1.20
2019-01-30T20:23:50.760Z,1.20
2019-01-30T20:26:21.917Z,1.20
2019-01-30T20:28:52.798Z,1.10
2019-01-30T20:31:23.582Z,1.20
2019-01-30T20:33:54.468Z,1.20
2019-01-30T20:36:25.248Z,1.10
2019-01-30T20:38:56.176Z,1.10
2019-01-30T20:41:27.344Z,1.20
2019-01-30T20:43:58.378Z,1.10
2019-01-30T20:46:29.137Z,1.10
2019-01-30T20:49:01.516Z,1.10
2019-01-30T20:51:32.249Z,1.10
2019-01-30T20:54:02.986Z,1.10
2019-01-30T20:56:33.875Z,1.10
2019-01-30T20:59:04.669Z,1.10
2019-01-30T21:01:35.429Z,1.10
2019-01-30T21:04:06.129Z,1.20
2019-01-30T21:06:37.005Z,1.20
2019-01-30T21:09:09.094Z,1.10
2019-01-30T21:11:40.008Z,1.10
2019-01-30T21:14:10.944Z,1.10
2019-01-30T21:16:41.636Z,1.10
2019-01-30T21:19:12.425Z,1.10
2019-01-30T21:21:43.354Z,1.10
2019-01-30T21:24:14.554Z,1.10
2019-01-30T21:26:45.433Z,1.10
2019-01-30T21:29:16.053Z,1.10
2019-01-30T21:31:46.784Z,1.10
2019-01-30T21:34:17.599Z,1.10
2019-01-30T21:36:49.035Z,1.10
2019-01-30T21:39:20.164Z,1.10
2019-01-30T21:41:51.064Z,1.10
2019-01-30T21:44:21.958Z,1.10
2019-01-30T21:46:53.072Z,1.10
2019-01-30T21:49:23.718Z,1.10
2019-01-30T21:51:54.631Z,1.10
2019-01-30T21:54:25.335Z,1.10
2019-01-30T21:56:56.013Z,1.10
2019-01-30T21:59:27.048Z,1.10
2019-01-30T22:02:08.113Z,1.10
2019-01-30T22:04:30.424Z,1.10
2019-01-30T22:07:01.500Z,1.10
2019-01-30T22:09:32.575Z,1.10
2019-01-30T22:12:03.194Z,1.10
2019-01-30T22:14:34.331Z,1.00
2019-01-30T22:17:06.471Z,1.00
2019-01-30T22:19:37.073Z,1.00
2019-01-30T22:22:07.590Z,1.00
2019-01-30T22:24:38.227Z,1.00
2019-01-30T22:27:08.859Z,1.00
2019-01-30T22:29:40.040Z,1.00
2019-01-30T22:32:11.145Z,1.00
2019-01-30T22:34:42.224Z,1.00
2019-01-30T22:37:12.785Z,1.00
2019-01-30T22:39:43.507Z,1.00
2019-01-30T22:42:14.739Z,1.00
2019-01-30T22:44:45.488Z,1.00
2019-01-30T22:47:16.514Z,1.00
2019-01-30T22:49:47.265Z,1.00
2019-01-30T22:52:19.333Z,1.00
2019-01-30T22:54:50.176Z,1.00
2019-01-30T22:57:20.845Z,1.00
2019-01-30T22:59:51.480Z,1.00
2019-01-30T23:02:22.587Z,1.00
2019-01-30T23:04:56.375Z,1.00
2019-01-30T23:07:33.173Z,1.00
2019-01-30T23:10:13.127Z,1.00
2019-01-30T23:12:59.017Z,1.00
2019-01-30T23:16:06.264Z,1.00
2019-01-30T23:18:55.172Z,1.00
2019-01-30T23:21:28.597Z,1.00
2019-01-30T23:24:23.521Z,1.00
2019-01-30T23:26:59.856Z,1.00
2019-01-30T23:29:33.450Z,1.00
2019-01-30T23:32:06.855Z,1.00
2019-01-30T23:34:56.175Z,1.00
2019-01-30T23:37:38.795Z,1.00
2019-01-30T23:40:30.796Z,1.00
2019-01-30T23:43:13.543Z,0.90
2019-01-30T23:45:59.343Z,0.90
2019-01-30T23:48:55.796Z,0.90
2019-01-30T23:51:41.963Z,0.90
2019-01-30T23:54:35.533Z,0.90
2019-01-30T23:57:33.460Z,0.90
